Time;durP1;ratioP1;P1;durP2;ratioP2;P2;SDS_P1;SDS_P2;PMS_P1;PMS_P2;Temp;Humidity;BMP_temperature;BMP_pressure;BME280_temperature;BME280_humidity;BME280_pressure;Samples;Min_cycle;Max_cycle;Signal;HPM_P1;HPM_P2
2022/01/22 00:02:18;;;;;;;;;;;;;;;-1.50;49.76;100224.16;5026696;28;20668;-79
2022/01/22 00:04:44;;;;;;;;;;;;;;;-1.54;49.81;100227.47;5026970;28;19921;-80
2022/01/22 00:07:10;;;;;;;;;;;;;;;-1.51;50.39;100232.75;5026806;28;19935;-80
2022/01/22 00:09:38;;;;;;;;;;;;;;;-1.48;49.61;100223.41;5027040;28;19917;-81
2022/01/22 00:12:06;;;;;;;;;;;;;;;-1.52;49.90;100226.69;5027088;28;19959;-80
2022/01/22 00:14:32;;;;;;;;;;;;;;;-1.49;49.77;100223.34;5027462;28;19932;-80
2022/01/22 00:16:59;;;;;;;;;;;;;;;-1.63;50.77;100222.75;5026785;28;20367;-80
2022/01/22 00:19:25;;;;;;;;;;;;;;;-1.63;50.78;100238.28;5027210;28;19909;-80
2022/01/22 00:21:51;;;;;;;;;;;;;;;-1.68;51.10;100229.47;5026408;28;19917;-80
2022/01/22 00:24:17;;;;;;;;;;;;;;;-1.71;50.88;100234.50;5027442;28;20017;-82
2022/01/22 00:26:43;;;;;;;;;;;;;;;-1.56;51.88;100234.25;5026242;28;19959;-80
2022/01/22 00:29:09;;;;;;;;;;;;;;;-1.74;51.33;100235.25;5027163;28;19984;-81
2022/01/22 00:31:35;;;;;;;;;;;;;;;-1.75;51.14;100233.47;5027362;28;20319;-80
2022/01/22 00:34:00;;;;;;;;;;;;;;;-1.64;51.81;100228.75;5026324;28;19959;-81
2022/01/22 00:36:25;;;;;;;;;;;;;;;-1.70;51.81;100216.47;5027211;28;19952;-81
2022/01/22 00:38:51;;;;;;;;;;;;;;;-1.80;51.91;100212.56;5027578;28;20004;-82
2022/01/22 00:41:16;;;;;;;;;;;;;;;-1.85;51.96;100211.50;5027185;28;19952;-80
2022/01/22 00:43:42;;;;;;;;;;;;;;;-1.82;51.72;100206.47;5026060;28;20379;-80
2022/01/22 00:46:07;;;;;;;;;;;;;;;-1.91;51.57;100210.38;5026955;28;19916;-82
2022/01/22 00:48:33;;;;;;;;;;;;;;;-1.91;51.75;100210.38;5027392;28;19909;-80
2022/01/22 00:51:00;;;;;;;;;;;;;;;-1.87;51.36;100197.63;5026270;28;19916;-79
2022/01/22 00:53:25;;;;;;;;;;;;;;;-1.93;50.94;100197.38;5027136;28;19963;-81
2022/01/22 00:55:51;;;;;;;;;;;;;;;-2.04;50.46;100212.41;5026672;28;20011;-80
2022/01/22 00:58:16;;;;;;;;;;;;;;;-1.93;49.46;100199.94;5027148;28;19913;-80
2022/01/22 01:00:42;;;;;;;;;;;;;;;-1.99;49.12;100210.91;5026281;28;19975;-80
2022/01/22 01:03:08;;;;;;;;;;;;;;;-1.88;49.33;100205.31;5028255;28;19913;-80
2022/01/22 01:05:34;;;;;;;;;;;;;;;-2.00;49.95;100205.66;5029336;28;19917;-80
2022/01/22 01:08:00;;;;;;;;;;;;;;;-2.01;49.81;100209.97;5025278;28;20389;-80
2022/01/22 01:10:25;;;;;;;;;;;;;;;-2.12;49.39;100206.00;5026394;28;19913;-79
2022/01/22 01:12:51;;;;;;;;;;;;;;;-2.08;49.76;100200.16;5025412;28;19912;-80
2022/01/22 01:17:59;;;;;;;;;;;;;;;-2.03;49.19;100206.41;5025063;28;19959;-80
2022/01/22 01:34:24;;;;;;;;;;;;;;;-1.92;47.96;100188.78;5026064;28;19990;-80
2022/01/22 01:36:49;;;;;;;;;;;;;;;-1.90;47.79;100173.31;5022995;28;19932;-79
2022/01/22 01:39:20;;;;;;;;;;;;;;;-1.82;48.16;100172.84;5023618;28;20561;-80
2022/01/22 01:44:18;;;;;;;;;;;;;;;-1.91;47.37;100154.34;5024306;28;19913;-79
2022/01/22 01:46:48;;;;;;;;;;;;;;;-1.89;47.18;100167.34;5024091;28;19924;-79
2022/01/22 01:49:14;;;;;;;;;;;;;;;-1.90;46.69;100170.72;5024616;28;20014;-79
2022/01/22 01:51:40;;;;;;;;;;;;;;;-1.94;46.48;100167.16;5025068;28;19959;-80
2022/01/22 01:59:21;;;;;;;;;;;;;;;-1.71;44.97;100175.00;5032511;28;19963;-80
2022/01/22 02:01:46;;;;;;;;;;;;;;;-1.58;46.20;100172.09;5032373;28;20311;-80
2022/01/22 02:04:13;;;;;;;;;;;;;;;-1.67;45.37;100176.88;5033225;28;19913;-80
2022/01/22 02:06:39;;;;;;;;;;;;;;;-1.64;45.27;100170.16;5032674;28;20003;-81
2022/01/22 02:09:09;;;;;;;;;;;;;;;-1.64;45.36;100171.84;5033060;28;20463;-81
2022/01/22 02:11:35;;;;;;;;;;;;;;;-1.63;45.72;100169.31;5032199;28;19917;-81
2022/01/22 02:24:42;;;;;;;;;;;;;;;-1.66;44.63;100157.97;5032483;28;19919;-80
2022/01/22 02:27:07;;;;;;;;;;;;;;;-1.59;44.82;100160.00;5032050;28;19917;-80
2022/01/22 02:29:33;;;;;;;;;;;;;;;-1.48;44.12;100163.88;5032592;28;20012;-79
2022/01/22 02:32:39;;;;;;;;;;;;;;;-1.48;45.04;100161.31;5030736;28;19962;-80
2022/01/22 02:34:53;;;;;;;;;;;;;;;-1.52;45.07;100153.34;5032121;28;19917;-81
2022/01/22 02:37:21;;;;;;;;;;;;;;;-1.51;44.81;100170.66;5030722;28;19917;-81
2022/01/22 02:40:00;;;;;;;;;;;;;;;-1.48;44.73;100166.47;5031292;28;19944;-80
2022/01/22 02:42:32;;;;;;;;;;;;;;;-1.39;44.85;100158.22;5032525;28;19917;-81
2022/01/22 02:44:57;;;;;;;;;;;;;;;-1.53;45.07;100149.00;5031430;28;19915;-80
2022/01/22 02:47:23;;;;;;;;;;;;;;;-1.39;45.35;100154.72;5031925;28;19913;-81
2022/01/22 02:49:49;;;;;;;;;;;;;;;-1.30;45.10;100158.59;5031039;28;19917;-81
2022/01/22 02:52:19;;;;;;;;;;;;;;;-1.40;45.17;100160.75;5017627;28;19918;-80
2022/01/22 02:54:46;;;;;;;;;;;;;;;-1.40;45.42;100166.78;5012670;28;20015;-81
2022/01/22 02:57:12;;;;;;;;;;;;;;;-1.50;45.54;100146.53;5011585;28;19913;-80
2022/01/22 02:59:38;;;;;;;;;;;;;;;-1.53;45.41;100159.34;5012568;28;19913;-80
2022/01/22 03:02:04;;;;;;;;;;;;;;;-1.52;44.79;100164.56;5025419;28;20360;-80
2022/01/22 03:04:30;;;;;;;;;;;;;;;-1.62;45.24;100160.75;5028588;28;19917;-81
2022/01/22 03:06:56;;;;;;;;;;;;;;;-1.31;45.54;100149.03;5028263;28;19913;-80
2022/01/22 03:09:28;;;;;;;;;;;;;;;-1.45;44.84;100147.63;5027589;28;19917;-80
2022/01/22 03:22:21;;;;;;;;;;;;;;;-1.48;45.38;100150.09;5027394;28;19916;-80
2022/01/22 03:27:32;;;;;;;;;;;;;;;-1.52;46.01;100148.19;5027967;28;19947;-80
2022/01/22 03:29:57;;;;;;;;;;;;;;;-1.48;45.42;100144.91;5028902;28;19920;-80
2022/01/22 03:32:26;;;;;;;;;;;;;;;-1.55;45.47;100145.47;5027183;28;19917;-80
2022/01/22 03:34:57;;;;;;;;;;;;;;;-1.39;45.74;100150.44;5028625;28;19909;-80
2022/01/22 03:37:23;;;;;;;;;;;;;;;-1.48;45.31;100152.66;5028100;28;19913;-81
2022/01/22 03:39:49;;;;;;;;;;;;;;;-1.34;45.46;100154.09;5026942;28;19917;-81
2022/01/22 03:42:14;;;;;;;;;;;;;;;-1.48;45.24;100150.09;5027947;28;20427;-81
2022/01/22 03:44:39;;;;;;;;;;;;;;;-1.35;45.48;100154.03;5027436;28;20011;-80
2022/01/22 03:47:05;;;;;;;;;;;;;;;-1.27;45.75;100156.13;5026539;28;20374;-80
2022/01/22 03:49:31;;;;;;;;;;;;;;;-1.45;45.74;100158.84;5028768;28;20268;-80
2022/01/22 03:51:56;;;;;;;;;;;;;;;-1.39;46.22;100163.41;5027122;28;19916;-80
2022/01/22 03:54:21;;;;;;;;;;;;;;;-1.59;45.98;100159.09;5028933;28;19920;-80
2022/01/22 03:56:47;;;;;;;;;;;;;;;-1.42;46.66;100155.50;5027103;28;19916;-80
2022/01/22 03:59:13;;;;;;;;;;;;;;;-1.27;46.04;100153.53;5027654;28;19999;-81
2022/01/22 04:04:12;;;;;;;;;;;;;;;-1.39;46.19;100150.44;5027846;28;19905;-80
2022/01/22 04:07:28;;;;;;;;;;;;;;;-1.68;46.73;100150.13;5027661;28;19916;-80
2022/01/22 04:09:26;;;;;;;;;;;;;;;-1.67;46.79;100151.91;5026958;28;19975;-79
2022/01/22 04:11:53;;;;;;;;;;;;;;;-1.56;47.06;100148.84;5027788;28;19952;-80
2022/01/22 04:14:23;;;;;;;;;;;;;;;-1.53;46.04;100141.22;5027956;28;19909;-80
2022/01/22 04:25:01;;;;;;;;;;;;;;;-1.58;46.77;100142.75;5027576;28;19986;-81
2022/01/22 04:27:29;;;;;;;;;;;;;;;-1.72;46.82;100139.59;5027978;28;19913;-80
2022/01/22 04:29:57;;;;;;;;;;;;;;;-1.82;46.31;100143.50;5027189;28;20379;-80
2022/01/22 04:32:23;;;;;;;;;;;;;;;-1.80;46.68;100136.69;5025162;28;20373;-80
2022/01/22 04:34:49;;;;;;;;;;;;;;;-1.76;46.46;100142.88;5028192;28;20403;-80
2022/01/22 04:37:17;;;;;;;;;;;;;;;-1.61;46.10;100133.16;5027248;28;19964;-80
2022/01/22 04:39:43;;;;;;;;;;;;;;;-1.60;46.21;100142.69;5027056;28;19975;-80
2022/01/22 04:42:08;;;;;;;;;;;;;;;-1.80;46.56;100142.75;5026674;28;20458;-80
2022/01/22 04:44:40;;;;;;;;;;;;;;;-1.77;46.89;100134.22;5026955;28;19909;-80
2022/01/22 04:54:59;;;;;;;;;;;;;;;-1.90;47.27;100131.94;5026252;28;19916;-80
2022/01/22 04:57:25;;;;;;;;;;;;;;;-1.93;47.30;100137.88;5026035;28;19917;-81
2022/01/22 04:59:51;;;;;;;;;;;;;;;-1.99;47.81;100135.03;5026504;28;20268;-80
2022/01/22 05:02:16;;;;;;;;;;;;;;;-1.79;47.52;100128.13;5012594;28;19924;-81
2022/01/22 05:04:41;;;;;;;;;;;;;;;-1.86;47.07;100131.25;5024372;28;19916;-81
2022/01/22 05:07:07;;;;;;;;;;;;;;;-1.98;46.89;100129.03;5026256;28;19970;-81
2022/01/22 05:09:32;;;;;;;;;;;;;;;-1.97;47.06;100128.22;5025783;28;19917;-81
2022/01/22 05:11:58;;;;;;;;;;;;;;;-1.91;47.14;100137.97;5026496;28;19924;-81
2022/01/22 05:14:24;;;;;;;;;;;;;;;-1.83;47.58;100137.44;5025886;28;19917;-80
2022/01/22 05:16:49;;;;;;;;;;;;;;;-1.82;46.97;100138.34;5025918;28;19917;-81
2022/01/22 05:19:46;;;;;;;;;;;;;;;-1.85;47.22;100130.44;5026403;28;20394;-81
2022/01/22 05:22:11;;;;;;;;;;;;;;;-1.94;47.27;100128.34;5024673;28;20011;-80
2022/01/22 05:24:41;;;;;;;;;;;;;;;-1.80;46.96;100128.94;5026730;28;19913;-80
2022/01/22 05:29:59;;;;;;;;;;;;;;;-1.98;47.11;100123.84;5026371;28;19967;-80
2022/01/22 05:33:31;;;;;;;;;;;;;;;-2.07;47.10;100126.06;5024468;28;19922;-79
2022/01/22 05:37:55;;;;;;;;;;;;;;;-1.78;46.78;100121.22;5026347;28;19916;-80
2022/01/22 05:40:20;;;;;;;;;;;;;;;-1.77;46.74;100125.59;5012635;28;19918;-81
2022/01/22 05:42:46;;;;;;;;;;;;;;;-1.81;46.29;100125.47;5013646;28;19913;-81
2022/01/22 05:45:11;;;;;;;;;;;;;;;-1.66;46.63;100121.75;5025317;28;19909;-80
2022/01/22 05:47:36;;;;;;;;;;;;;;;-1.73;46.00;100122.28;5024902;28;20000;-82
2022/01/22 05:50:06;;;;;;;;;;;;;;;-1.72;47.36;100134.41;5025870;28;19920;-81
2022/01/22 05:52:40;;;;;;;;;;;;;;;-1.70;46.20;100128.50;5025123;28;20000;-80
2022/01/22 05:55:27;;;;;;;;;;;;;;;-1.94;47.38;100128.34;5023623;28;20000;-79
2022/01/22 06:00:36;;;;;;;;;;;;;;;-1.58;46.95;100124.63;4999020;28;19923;-80
2022/01/22 06:03:02;;;;;;;;;;;;;;;-1.53;46.66;100125.69;5026240;28;19913;-80
2022/01/22 06:05:27;;;;;;;;;;;;;;;-1.63;46.72;100117.56;5023348;28;19913;-80
2022/01/22 06:07:52;;;;;;;;;;;;;;;-1.55;46.26;100115.28;5025333;28;19913;-79
2022/01/22 06:10:18;;;;;;;;;;;;;;;-1.67;46.61;100119.97;5025010;28;19921;-80
2022/01/22 06:12:58;;;;;;;;;;;;;;;-1.49;46.10;100118.13;5025188;28;19960;-80
2022/01/22 06:15:23;;;;;;;;;;;;;;;-1.54;45.95;100117.06;5025987;28;19920;-80
2022/01/22 06:17:49;;;;;;;;;;;;;;;-1.47;45.88;100113.00;5025994;28;20364;-79
2022/01/22 06:20:15;;;;;;;;;;;;;;;-1.47;45.73;100113.91;5025741;28;19924;-80
2022/01/22 06:22:41;;;;;;;;;;;;;;;-1.30;45.81;100111.09;5025058;28;19923;-80
2022/01/22 06:25:06;;;;;;;;;;;;;;;-1.31;45.55;100114.53;5026069;28;19913;-79
2022/01/22 06:27:32;;;;;;;;;;;;;;;-1.27;45.58;100109.53;5024911;28;19917;-79
2022/01/22 06:29:57;;;;;;;;;;;;;;;-1.31;45.91;100097.28;5024899;28;19976;-80
2022/01/22 06:32:22;;;;;;;;;;;;;;;-1.12;45.28;100098.84;5024396;28;19917;-80
2022/01/22 06:34:48;;;;;;;;;;;;;;;-0.99;45.31;100089.88;5025168;28;20438;-82
2022/01/22 06:37:13;;;;;;;;;;;;;;;-0.79;44.81;100100.97;5025753;28;19920;-81
2022/01/22 06:41:44;;;;;;;;;;;;;;;-1.07;44.94;100096.44;5027263;28;19917;-81
2022/01/22 06:42:26;;;;;;;;;;;;;;;-0.89;44.76;100080.72;5029530;28;19972;-80
2022/01/22 06:44:52;;;;;;;;;;;;;;;-0.77;44.68;100085.50;5029837;28;19948;-80
2022/01/22 06:47:17;;;;;;;;;;;;;;;-0.75;44.56;100089.00;5028758;28;20696;-80
2022/01/22 06:49:42;;;;;;;;;;;;;;;-0.64;44.03;100079.91;5029337;28;19920;-80
2022/01/22 06:52:08;;;;;;;;;;;;;;;-0.41;43.75;100082.44;5029903;28;19913;-80
2022/01/22 06:54:33;;;;;;;;;;;;;;;-0.40;43.77;100074.72;5027355;28;19924;-81
2022/01/22 06:56:58;;;;;;;;;;;;;;;-0.20;44.42;100079.75;5029649;28;19919;-81
2022/01/22 06:59:24;;;;;;;;;;;;;;;-0.16;43.33;100076.41;5029194;28;20036;-80
2022/01/22 07:01:54;;;;;;;;;;;;;;;0.05;43.93;100080.53;5028957;28;20004;-80
2022/01/22 07:04:19;;;;;;;;;;;;;;;-0.02;43.45;100077.78;5029158;28;19909;-80
2022/01/22 07:06:45;;;;;;;;;;;;;;;0.03;44.07;100070.13;5028485;28;19928;-80
2022/01/22 07:09:10;;;;;;;;;;;;;;;-0.01;43.69;100071.72;5028710;28;19970;-81
2022/01/22 07:11:35;;;;;;;;;;;;;;;0.08;43.18;100067.66;5029562;28;20578;-80
2022/01/22 07:14:01;;;;;;;;;;;;;;;0.29;43.18;100072.69;5027595;28;20068;-80
2022/01/22 07:16:26;;;;;;;;;;;;;;;-0.03;42.81;100062.16;5027930;28;20360;-80
2022/01/22 07:18:55;;;;;;;;;;;;;;;0.15;42.66;100065.34;5028650;28;20466;-80
2022/01/22 07:21:21;;;;;;;;;;;;;;;0.02;42.29;100067.47;5027948;28;20311;-78
2022/01/22 07:26:12;;;;;;;;;;;;;;;-0.32;42.97;100058.56;5027726;28;19971;-81
2022/01/22 07:28:39;;;;;;;;;;;;;;;-0.38;43.02;100057.50;5029558;28;20281;-81
2022/01/22 07:31:04;;;;;;;;;;;;;;;-0.20;42.37;100048.63;5028562;28;20352;-84
2022/01/22 07:33:30;;;;;;;;;;;;;;;-0.35;42.63;100043.78;5027808;28;19920;-83
2022/01/22 07:35:55;;;;;;;;;;;;;;;-0.27;42.65;100047.50;5028016;28;19924;-82
2022/01/22 07:38:21;;;;;;;;;;;;;;;-0.12;42.45;100038.50;5028815;28;19920;-82
2022/01/22 07:40:46;;;;;;;;;;;;;;;-0.28;42.84;100042.28;5027159;28;19917;-82
2022/01/22 07:43:14;;;;;;;;;;;;;;;0.01;42.71;100045.84;5028110;28;19920;-83
2022/01/22 07:45:39;;;;;;;;;;;;;;;0.08;42.70;100046.91;5026648;28;19999;-84
2022/01/22 07:48:05;;;;;;;;;;;;;;;0.13;42.62;100042.78;5028411;28;20074;-82
2022/01/22 07:50:30;;;;;;;;;;;;;;;0.15;42.03;100033.31;5028083;28;19913;-82
2022/01/22 07:52:57;;;;;;;;;;;;;;;0.40;42.45;100021.13;5028408;28;20427;-83
2022/01/22 07:55:23;;;;;;;;;;;;;;;0.56;42.68;100027.66;5028136;28;20450;-82
2022/01/22 07:57:48;;;;;;;;;;;;;;;0.55;42.00;100013.81;5027888;28;19917;-83
2022/01/22 08:00:17;;;;;;;;;;;;;;;0.20;42.36;100030.88;5027138;28;19917;-84
2022/01/22 08:02:42;;;;;;;;;;;;;;;0.28;42.31;100024.22;5028146;28;19912;-84
2022/01/22 08:05:08;;;;;;;;;;;;;;;0.50;43.24;100007.63;5027929;28;19913;-84
2022/01/22 08:07:34;;;;;;;;;;;;;;;0.64;42.67;100015.81;5027719;28;20389;-83
2022/01/22 08:09:59;;;;;;;;;;;;;;;0.51;42.26;100017.13;5027541;28;19917;-84
2022/01/22 08:12:25;;;;;;;;;;;;;;;0.31;42.85;100019.13;5026895;28;19919;-82
2022/01/22 08:14:52;;;;;;;;;;;;;;;0.49;43.16;100011.03;5027820;28;19913;-80
2022/01/22 08:17:17;;;;;;;;;;;;;;;0.64;42.47;100018.41;5025431;28;19943;-82
2022/01/22 08:19:43;;;;;;;;;;;;;;;0.53;43.35;100013.78;5026922;28;19917;-82
2022/01/22 08:22:08;;;;;;;;;;;;;;;0.57;42.99;100008.66;5026965;28;19970;-84
2022/01/22 08:24:34;;;;;;;;;;;;;;;0.56;42.66;100005.19;5022902;28;19920;-82
2022/01/22 08:29:33;;;;;;;;;;;;;;;0.45;43.23;100014.34;5026828;28;19917;-82
2022/01/22 08:37:13;;;;;;;;;;;;;;;1.02;42.64;100001.34;5026419;28;19951;-81
2022/01/22 08:39:39;;;;;;;;;;;;;;;0.89;43.11;99996.63;5027573;28;20375;-81
2022/01/22 08:42:06;;;;;;;;;;;;;;;1.07;42.63;99991.09;5026485;28;19924;-82
2022/01/22 08:44:31;;;;;;;;;;;;;;;0.89;42.96;99986.25;5026427;28;19913;-82
2022/01/22 08:46:57;;;;;;;;;;;;;;;1.09;43.82;99996.34;5025106;28;20445;-82
2022/01/22 08:49:22;;;;;;;;;;;;;;;1.05;42.35;99980.66;5025885;28;19934;-81
2022/01/22 08:51:48;;;;;;;;;;;;;;;0.98;42.53;99990.84;5026498;28;19913;-81
2022/01/22 08:54:13;;;;;;;;;;;;;;;0.85;42.43;99989.59;5026474;28;19913;-82
2022/01/22 08:56:40;;;;;;;;;;;;;;;0.94;42.63;99988.97;5026096;28;19913;-81
2022/01/22 08:59:05;;;;;;;;;;;;;;;1.05;43.47;99982.34;5026925;28;19913;-81
2022/01/22 09:01:30;;;;;;;;;;;;;;;0.86;42.90;99979.25;5025584;28;20505;-82
2022/01/22 09:03:56;;;;;;;;;;;;;;;0.88;42.39;99968.88;5026224;28;20031;-82
2022/01/22 09:06:22;;;;;;;;;;;;;;;0.93;43.38;99972.53;5026911;28;19917;-83
2022/01/22 09:08:50;;;;;;;;;;;;;;;1.31;43.07;99974.41;5025628;28;19920;-81
2022/01/22 09:11:17;;;;;;;;;;;;;;;1.27;43.17;99973.44;5027066;28;19920;-81
2022/01/22 09:13:43;;;;;;;;;;;;;;;1.33;43.56;99962.31;5027264;28;20817;-81
2022/01/22 09:16:08;;;;;;;;;;;;;;;1.25;42.75;99962.13;5025534;28;19992;-81
2022/01/22 09:18:34;;;;;;;;;;;;;;;1.18;42.32;99962.81;5027173;28;20390;-82
2022/01/22 09:21:04;;;;;;;;;;;;;;;1.36;42.14;99941.59;5027044;28;19913;-81
2022/01/22 09:23:30;;;;;;;;;;;;;;;1.27;42.74;99949.16;5026793;28;20100;-82
2022/01/22 09:25:56;;;;;;;;;;;;;;;1.30;42.93;99939.75;5027123;28;19913;-81
2022/01/22 09:28:22;;;;;;;;;;;;;;;1.36;42.67;99933.81;5027185;28;19913;-81
2022/01/22 09:30:47;;;;;;;;;;;;;;;1.88;42.90;99929.03;5026482;28;19916;-81
2022/01/22 09:33:13;;;;;;;;;;;;;;;1.81;42.32;99925.41;5026038;28;20429;-82
2022/01/22 09:35:38;;;;;;;;;;;;;;;1.43;42.23;99918.41;5026746;28;19917;-81
2022/01/22 09:38:04;;;;;;;;;;;;;;;1.39;42.43;99920.88;5026051;28;19917;-81
2022/01/22 09:40:29;;;;;;;;;;;;;;;1.62;43.65;99908.47;5025447;28;19917;-82
2022/01/22 09:42:56;;;;;;;;;;;;;;;1.63;42.91;99898.97;5026411;28;19971;-82
2022/01/22 09:45:22;;;;;;;;;;;;;;;1.68;43.28;99898.22;5025575;28;20012;-83
2022/01/22 09:47:48;;;;;;;;;;;;;;;2.00;42.59;99895.50;5026506;28;19953;-83
2022/01/22 09:50:15;;;;;;;;;;;;;;;2.11;42.35;99881.00;5027167;28;19912;-82
2022/01/22 09:52:41;;;;;;;;;;;;;;;2.17;42.31;99880.25;5025220;28;19921;-81
2022/01/22 09:55:07;;;;;;;;;;;;;;;2.12;41.14;99871.47;5025950;28;19928;-84
2022/01/22 09:57:34;;;;;;;;;;;;;;;1.78;39.88;99886.31;5025633;28;20268;-83
2022/01/22 10:00:00;;;;;;;;;;;;;;;1.68;40.46;99881.75;5025117;28;20040;-82
2022/01/22 10:02:26;;;;;;;;;;;;;;;1.75;41.37;99868.91;5024772;28;20295;-82
2022/01/22 10:04:52;;;;;;;;;;;;;;;2.14;40.56;99867.19;5023762;28;19924;-81
2022/01/22 10:07:21;;;;;;;;;;;;;;;2.26;39.73;99857.03;5025150;28;19913;-81
2022/01/22 10:10:00;;;;;;;;;;;;;;;2.56;38.26;99850.69;5022803;28;19917;-84
2022/01/22 10:12:27;;;;;;;;;;;;;;;2.16;36.54;99852.47;5025156;28;20462;-85
2022/01/22 10:15:07;;;;;;;;;;;;;;;2.17;37.56;99849.03;5028833;28;19912;-82
2022/01/22 10:17:44;;;;;;;;;;;;;;;2.21;38.36;99848.25;5029591;28;19940;-83
2022/01/22 10:20:29;;;;;;;;;;;;;;;2.10;39.25;99854.94;5030224;28;19959;-81
2022/01/22 10:23:08;;;;;;;;;;;;;;;2.17;39.12;99848.16;5028995;28;19917;-80
2022/01/22 10:25:37;;;;;;;;;;;;;;;2.10;37.50;99835.00;5029788;28;19913;-81
2022/01/22 10:28:08;;;;;;;;;;;;;;;2.20;39.80;99830.88;5029947;28;19921;-81
2022/01/22 10:30:36;;;;;;;;;;;;;;;2.34;38.38;99833.75;5030151;28;20012;-84
2022/01/22 10:33:32;;;;;;;;;;;;;;;2.51;39.22;99831.50;5048617;28;20839;-82
2022/01/22 10:36:08;;;;;;;;;;;;;;;2.71;37.33;99829.28;5008651;28;19913;-85
2022/01/22 10:38:38;;;;;;;;;;;;;;;2.24;37.51;99830.09;5009750;28;19936;-81
2022/01/22 10:41:06;;;;;;;;;;;;;;;2.25;38.28;99828.34;5022154;28;20383;-83
2022/01/22 10:43:33;;;;;;;;;;;;;;;2.45;38.34;99828.75;5029405;28;19917;-85
2022/01/22 10:48:53;;;;;;;;;;;;;;;2.59;37.75;99811.66;5027895;28;19950;-84
2022/01/22 10:51:18;;;;;;;;;;;;;;;2.63;37.92;99820.44;5028042;28;20287;-83
2022/01/22 10:53:51;;;;;;;;;;;;;;;2.77;38.37;99832.00;5027959;28;19913;-81
2022/01/22 10:56:18;;;;;;;;;;;;;;;2.76;37.23;99824.16;5029805;28;19995;-81
2022/01/22 10:58:53;;;;;;;;;;;;;;;2.49;37.17;99809.75;5029347;28;19963;-82
2022/01/22 11:01:19;;;;;;;;;;;;;;;2.60;38.51;99812.56;5029728;28;19913;-81
2022/01/22 11:03:44;;;;;;;;;;;;;;;2.90;37.01;99824.41;5029237;28;19982;-83
2022/01/22 11:06:24;;;;;;;;;;;;;;;2.10;34.74;99813.28;5029301;28;19909;-82
2022/01/22 11:08:49;;;;;;;;;;;;;;;1.78;35.72;99810.88;5030169;28;20427;-84
2022/01/22 11:11:14;;;;;;;;;;;;;;;1.85;35.73;99812.75;5029267;28;19916;-81
2022/01/22 11:13:39;;;;;;;;;;;;;;;1.76;36.01;99810.84;5029245;28;20299;-82
2022/01/22 11:16:05;;;;;;;;;;;;;;;1.86;36.63;99798.06;5025781;28;20397;-84
2022/01/22 11:18:32;;;;;;;;;;;;;;;1.60;37.10;99795.75;5027791;28;20009;-82
2022/01/22 11:20:58;;;;;;;;;;;;;;;1.59;37.35;99801.78;5028961;28;19948;-81
2022/01/22 11:23:24;;;;;;;;;;;;;;;1.58;37.51;99803.50;5028930;28;20021;-82
2022/01/22 11:25:50;;;;;;;;;;;;;;;1.88;38.19;99804.16;5026504;28;19999;-82
2022/01/22 11:28:16;;;;;;;;;;;;;;;2.04;38.35;99792.34;5029108;28;20687;-83
2022/01/22 11:30:43;;;;;;;;;;;;;;;2.01;38.47;99802.69;5028552;28;19924;-82
2022/01/22 11:33:11;;;;;;;;;;;;;;;2.13;38.99;99779.53;5028998;28;19913;-81
2022/01/22 11:35:48;;;;;;;;;;;;;;;2.32;37.29;99771.25;5028591;28;19999;-83
2022/01/22 11:38:18;;;;;;;;;;;;;;;2.32;37.48;99775.59;5028624;28;19909;-82
2022/01/22 11:41:01;;;;;;;;;;;;;;;2.41;37.36;99780.06;5028377;28;19917;-82
2022/01/22 11:43:49;;;;;;;;;;;;;;;2.38;35.28;99778.31;5028527;28;19913;-84
2022/01/22 11:46:37;;;;;;;;;;;;;;;2.24;36.05;99766.72;5028234;28;19921;-84
2022/01/22 11:49:13;;;;;;;;;;;;;;;2.26;36.29;99773.72;5026795;28;19956;-82
2022/01/22 11:51:39;;;;;;;;;;;;;;;2.13;36.94;99769.13;5027946;28;19920;-80
2022/01/22 11:54:05;;;;;;;;;;;;;;;1.76;37.49;99776.16;5027178;28;19921;-81
2022/01/22 11:56:40;;;;;;;;;;;;;;;1.43;37.95;99767.63;5028628;28;19913;-82
2022/01/22 11:59:11;;;;;;;;;;;;;;;1.58;38.59;99769.69;5028208;28;19952;-82
2022/01/22 12:01:43;;;;;;;;;;;;;;;1.78;38.65;99775.34;5026545;28;19913;-82
2022/01/22 12:04:09;;;;;;;;;;;;;;;1.64;39.02;99779.38;5027458;28;19917;-82
2022/01/22 12:06:35;;;;;;;;;;;;;;;1.51;39.03;99766.94;5027803;28;19917;-83
2022/01/22 12:09:04;;;;;;;;;;;;;;;1.50;38.30;99760.84;5026228;28;19917;-83
2022/01/22 12:14:54;;;;;;;;;;;;;;;1.37;38.40;99757.09;5027997;28;19944;-84
2022/01/22 12:17:29;;;;;;;;;;;;;;;1.43;38.51;99766.75;5004133;28;19923;-84
2022/01/22 12:22:30;;;;;;;;;;;;;;;1.65;37.50;99764.63;5028245;28;20295;-82
2022/01/22 12:24:55;;;;;;;;;;;;;;;1.87;37.86;99753.84;5026713;28;19944;-82
2022/01/22 12:27:39;;;;;;;;;;;;;;;1.60;36.82;99751.53;5027178;28;19945;-81
2022/01/22 12:30:05;;;;;;;;;;;;;;;1.92;37.72;99753.97;5027413;28;20091;-83
2022/01/22 12:32:42;;;;;;;;;;;;;;;1.95;36.72;99748.81;5020276;28;19921;-81
2022/01/22 12:35:09;;;;;;;;;;;;;;;2.46;36.63;99747.22;5009106;28;19959;-82
2022/01/22 12:37:39;;;;;;;;;;;;;;;2.54;35.35;99745.63;5006682;28;20366;-81
2022/01/22 12:40:06;;;;;;;;;;;;;;;2.63;36.05;99748.38;5015672;28;19925;-82
2022/01/22 12:43:01;;;;;;;;;;;;;;;2.38;35.39;99749.66;5021041;28;20376;-82
2022/01/22 12:45:27;;;;;;;;;;;;;;;2.45;35.59;99742.84;5021753;28;20433;-84
2022/01/22 12:47:54;;;;;;;;;;;;;;;2.27;35.65;99744.25;5025027;28;19913;-83
2022/01/22 12:50:24;;;;;;;;;;;;;;;2.32;35.48;99750.41;5023123;28;19924;-81
2022/01/22 12:52:51;;;;;;;;;;;;;;;2.45;34.65;99746.31;5024846;28;19921;-82
2022/01/22 12:55:23;;;;;;;;;;;;;;;2.49;34.06;99734.25;5024434;28;19964;-82
2022/01/22 12:57:49;;;;;;;;;;;;;;;2.48;34.91;99748.09;5022668;28;20327;-83
2022/01/22 13:00:19;;;;;;;;;;;;;;;2.60;34.59;99743.13;5023069;28;20967;-84
2022/01/22 13:02:57;;;;;;;;;;;;;;;2.76;35.05;99744.25;5025185;28;19922;-83
2022/01/22 13:05:23;;;;;;;;;;;;;;;2.75;34.79;99742.53;5026282;28;19917;-81
2022/01/22 13:08:01;;;;;;;;;;;;;;;2.43;34.81;99744.53;5025460;28;19916;-83
2022/01/22 13:10:31;;;;;;;;;;;;;;;2.49;34.68;99747.25;5025923;28;19917;-80
2022/01/22 13:12:57;;;;;;;;;;;;;;;2.53;34.88;99748.19;5026221;28;19924;-83
2022/01/22 13:15:23;;;;;;;;;;;;;;;2.15;35.11;99744.00;5026346;28;19913;-83
2022/01/22 13:17:54;;;;;;;;;;;;;;;2.00;35.93;99741.97;5024531;28;19924;-82
2022/01/22 13:20:20;;;;;;;;;;;;;;;1.96;35.86;99743.66;5025298;28;20637;-83
2022/01/22 13:22:46;;;;;;;;;;;;;;;1.84;36.39;99738.19;5026448;28;19921;-87
2022/01/22 13:25:12;;;;;;;;;;;;;;;1.88;36.79;99747.78;5026449;28;19913;-84
2022/01/22 13:27:38;;;;;;;;;;;;;;;1.76;36.37;99744.94;5026197;28;19979;-83
2022/01/22 13:30:05;;;;;;;;;;;;;;;2.02;37.32;99739.41;5025143;28;19929;-83
2022/01/22 13:32:55;;;;;;;;;;;;;;;1.81;36.90;99740.72;5024558;28;19917;-81
2022/01/22 13:48:47;;;;;;;;;;;;;;;2.09;36.93;99738.69;5025319;28;19939;-86
2022/01/22 13:51:12;;;;;;;;;;;;;;;2.02;36.84;99729.84;5024282;28;19913;-83
2022/01/22 13:53:39;;;;;;;;;;;;;;;2.25;37.04;99729.44;5026057;28;19971;-82
2022/01/22 13:56:08;;;;;;;;;;;;;;;2.08;36.91;99739.53;5025802;28;19924;-83
2022/01/22 13:58:34;;;;;;;;;;;;;;;2.43;36.78;99727.19;5024829;28;19913;-84
2022/01/22 14:01:05;;;;;;;;;;;;;;;2.50;36.92;99725.56;5025294;28;20279;-83
2022/01/22 14:03:38;;;;;;;;;;;;;;;2.72;36.58;99720.72;5026671;28;19937;-83
2022/01/22 14:06:05;;;;;;;;;;;;;;;2.81;37.30;99723.50;5025951;28;19995;-82
2022/01/22 14:08:33;;;;;;;;;;;;;;;2.76;37.63;99722.53;5026291;28;19995;-84
2022/01/22 14:11:16;;;;;;;;;;;;;;;2.37;37.05;99728.81;5026337;28;19959;-83
2022/01/22 14:13:42;;;;;;;;;;;;;;;2.44;37.97;99721.13;5025990;28;20766;-83
2022/01/22 14:16:15;;;;;;;;;;;;;;;2.20;37.42;99734.56;5025945;28;19919;-83
2022/01/22 14:18:44;;;;;;;;;;;;;;;2.02;37.49;99721.19;5025678;28;19916;-84
2022/01/22 14:21:17;;;;;;;;;;;;;;;2.10;38.17;99724.81;5025626;28;19963;-83
2022/01/22 14:23:44;;;;;;;;;;;;;;;1.91;38.54;99719.25;5026116;28;19955;-84
2022/01/22 14:26:12;;;;;;;;;;;;;;;1.87;38.42;99724.34;5025784;28;20391;-83
2022/01/22 14:28:42;;;;;;;;;;;;;;;1.92;38.90;99718.41;5025457;28;20367;-83
2022/01/22 14:31:23;;;;;;;;;;;;;;;1.98;38.73;99728.06;5025649;28;19916;-82
2022/01/22 14:33:48;;;;;;;;;;;;;;;1.91;39.22;99733.97;5026497;28;19917;-83
2022/01/22 14:36:18;;;;;;;;;;;;;;;1.65;40.97;99733.44;5024481;28;19920;-82
2022/01/22 14:38:55;;;;;;;;;;;;;;;1.43;42.33;99735.56;5025852;28;20384;-84